createdAt,value
2022-10-09T00:01:29.242Z,82.60
2022-10-09T00:03:57.635Z,82.34
2022-10-09T00:06:27.431Z,82.03
2022-10-09T00:08:54.054Z,82.02
2022-10-09T00:11:23.846Z,82.49
2022-10-09T00:13:51.966Z,82.87
2022-10-09T00:16:19.533Z,82.56
2022-10-09T00:18:47.398Z,82.23
2022-10-09T00:21:24.266Z,82.09
2022-10-09T00:23:52.489Z,82.02
2022-10-09T00:26:19.387Z,82.44
2022-10-09T00:28:46.903Z,83.37
2022-10-09T00:31:14.275Z,82.35
2022-10-09T00:33:41.043Z,82.17
2022-10-09T00:36:10.466Z,82.46
2022-10-09T00:38:36.902Z,82.42
2022-10-09T00:41:03.448Z,82.44
2022-10-09T00:43:44.698Z,82.56
2022-10-09T00:46:46.053Z,82.35
2022-10-09T00:49:20.803Z,82.86
2022-10-09T00:51:49.873Z,82.23
2022-10-09T00:54:20.834Z,82.15
2022-10-09T00:56:48.627Z,82.37
2022-10-09T00:59:16.797Z,82.45
2022-10-09T01:01:43.996Z,82.20
2022-10-09T01:04:10.477Z,82.65
2022-10-09T01:06:54.942Z,82.40
2022-10-09T01:09:31.048Z,81.93
2022-10-09T01:12:23.834Z,81.97
2022-10-09T01:15:05.509Z,82.65
2022-10-09T01:17:34.664Z,83.08
2022-10-09T01:20:25.089Z,82.87
2022-10-09T01:23:17.427Z,82.44
2022-10-09T01:26:05.165Z,82.71
2022-10-09T01:28:32.444Z,83.03
2022-10-09T01:31:03.051Z,82.63
2022-10-09T01:33:31.421Z,82.70
2022-10-09T01:35:59.762Z,82.54
2022-10-09T01:38:28.117Z,82.44
2022-10-09T01:40:54.930Z,83.15
2022-10-09T01:43:21.402Z,83.33
2022-10-09T01:45:48.423Z,83.08
2022-10-09T01:48:25.026Z,83.56
2022-10-09T01:50:59.811Z,83.70
2022-10-09T01:53:26.969Z,83.26
2022-10-09T01:56:11.418Z,83.52
2022-10-09T01:58:59.556Z,83.57
2022-10-09T02:01:32.744Z,82.98
2022-10-09T02:04:01.650Z,83.23
2022-10-09T02:06:29.793Z,83.27
2022-10-09T02:08:56.327Z,83.55
2022-10-09T02:11:26.118Z,83.57
2022-10-09T02:13:53.549Z,83.13
2022-10-09T02:16:41.962Z,83.49
2022-10-09T02:19:37.610Z,83.65
2022-10-09T02:22:17.410Z,83.50
2022-10-09T02:24:44.657Z,83.71
2022-10-09T02:27:13.086Z,83.34
2022-10-09T02:29:45.083Z,83.21
2022-10-09T02:32:12.301Z,83.10
2022-10-09T02:34:38.999Z,83.86
2022-10-09T02:37:06.010Z,83.64
2022-10-09T02:39:32.575Z,83.99
2022-10-09T02:41:58.956Z,84.24
2022-10-09T02:44:25.426Z,83.42
2022-10-09T02:46:51.942Z,83.72
2022-10-09T02:49:18.765Z,83.35
2022-10-09T02:51:45.367Z,83.42
2022-10-09T02:54:11.947Z,83.42
2022-10-09T02:56:39.271Z,82.97
2022-10-09T02:59:06.312Z,83.18
2022-10-09T03:01:32.945Z,83.21
2022-10-09T03:03:59.394Z,83.63
2022-10-09T03:06:27.773Z,83.40
2022-10-09T03:08:54.932Z,83.50
2022-10-09T03:11:23.487Z,83.43
2022-10-09T03:13:50.861Z,83.29
2022-10-09T03:16:20.385Z,83.94
2022-10-09T03:18:48.081Z,83.61
2022-10-09T03:21:25.974Z,83.37
2022-10-09T03:23:53.415Z,83.48
2022-10-09T03:26:22.881Z,83.72
2022-10-09T03:28:50.477Z,83.60
2022-10-09T03:31:46.556Z,83.63
2022-10-09T03:34:05.366Z,84.16
2022-10-09T03:36:31.749Z,84.01
2022-10-09T03:38:58.167Z,83.77
2022-10-09T03:41:24.674Z,83.81
2022-10-09T03:43:51.084Z,84.00
2022-10-09T03:46:17.650Z,83.74
2022-10-09T03:48:44.086Z,84.43
2022-10-09T03:51:10.510Z,84.09
2022-10-09T03:53:36.932Z,83.79
2022-10-09T03:56:03.451Z,84.19
2022-10-09T03:58:29.964Z,84.07
2022-10-09T04:00:56.510Z,84.04
2022-10-09T04:03:23.439Z,84.41
2022-10-09T04:05:50.000Z,84.27
2022-10-09T04:08:16.393Z,84.06
2022-10-09T04:10:42.838Z,84.15
2022-10-09T04:13:09.319Z,83.96
2022-10-09T04:15:36.666Z,83.46
2022-10-09T04:18:03.713Z,84.51
2022-10-09T04:20:30.123Z,84.68
2022-10-09T04:22:56.550Z,84.67
2022-10-09T04:25:23.008Z,84.70
2022-10-09T04:27:49.392Z,85.19
2022-10-09T04:30:15.926Z,85.14
2022-10-09T04:32:42.349Z,85.94
2022-10-09T04:35:08.966Z,85.43
2022-10-09T04:37:36.640Z,85.31
2022-10-09T04:40:03.514Z,85.96
2022-10-09T04:42:30.333Z,85.04
2022-10-09T04:44:56.796Z,85.60
2022-10-09T04:47:23.168Z,85.08
2022-10-09T04:49:49.661Z,85.45
2022-10-09T04:52:16.016Z,85.34
2022-10-09T04:54:42.468Z,84.92
2022-10-09T04:57:08.911Z,85.10
2022-10-09T04:59:35.286Z,84.76
2022-10-09T05:02:01.902Z,85.69
2022-10-09T05:04:28.485Z,85.88
2022-10-09T05:06:54.843Z,85.51
2022-10-09T05:09:21.325Z,85.53
2022-10-09T05:11:47.703Z,85.21
2022-10-09T05:14:14.327Z,85.25
2022-10-09T05:17:00.868Z,84.90
2022-10-09T05:19:27.257Z,85.17
2022-10-09T05:21:54.177Z,84.95
2022-10-09T05:24:20.802Z,85.00
2022-10-09T05:26:47.236Z,84.67
2022-10-09T05:29:13.627Z,84.97
2022-10-09T05:31:40.063Z,84.63
2022-10-09T05:34:06.507Z,85.16
2022-10-09T05:36:32.872Z,85.16
2022-10-09T05:39:01.177Z,84.60
2022-10-09T05:41:29.604Z,84.57
2022-10-09T05:44:01.405Z,84.72
2022-10-09T05:46:29.727Z,84.83
2022-10-09T05:49:01.638Z,84.85
2022-10-09T05:51:30.689Z,85.00
2022-10-09T05:53:57.905Z,84.77
2022-10-09T05:56:27.579Z,85.17
2022-10-09T05:58:59.012Z,85.28
2022-10-09T06:01:28.160Z,85.50
2022-10-09T06:03:56.974Z,85.10
2022-10-09T06:06:26.521Z,85.02
2022-10-09T06:08:53.602Z,85.07
2022-10-09T06:11:23.255Z,85.35
2022-10-09T06:13:49.897Z,85.11
2022-10-09T06:16:17.910Z,85.21
2022-10-09T06:18:49.261Z,85.14
2022-10-09T06:21:16.857Z,85.63
2022-10-09T06:23:43.637Z,85.29
2022-10-09T06:26:13.756Z,85.76
2022-10-09T06:28:40.551Z,85.69
2022-10-09T06:31:16.376Z,85.75
2022-10-09T06:33:44.474Z,85.35
2022-10-09T06:36:14.128Z,85.96
2022-10-09T06:38:41.425Z,86.28
2022-10-09T06:41:12.045Z,85.74
2022-10-09T06:43:39.603Z,85.76
2022-10-09T06:46:10.016Z,85.91
2022-10-09T06:48:38.320Z,86.30
2022-10-09T06:51:14.874Z,85.68
2022-10-09T06:53:44.335Z,85.69
2022-10-09T06:56:14.243Z,85.92
2022-10-09T06:58:41.238Z,85.88
2022-10-09T07:01:13.219Z,85.99
2022-10-09T07:03:41.992Z,86.35
2022-10-09T07:06:11.311Z,86.17
2022-10-09T07:08:39.453Z,86.20
2022-10-09T07:11:22.819Z,86.55
2022-10-09T07:13:52.674Z,85.97
2022-10-09T07:16:24.314Z,85.60
2022-10-09T07:18:51.208Z,85.53
2022-10-09T07:21:18.220Z,85.98
2022-10-09T07:23:44.678Z,85.73
2022-10-09T07:26:12.737Z,85.54
2022-10-09T07:28:40.396Z,85.43
2022-10-09T07:31:07.868Z,85.61
2022-10-09T07:33:34.856Z,85.34
2022-10-09T07:36:03.336Z,85.51
2022-10-09T07:38:30.065Z,84.60
2022-10-09T07:41:04.546Z,83.72
2022-10-09T07:43:31.380Z,83.02
2022-10-09T07:45:59.416Z,82.29
2022-10-09T07:48:26.510Z,80.72
2022-10-09T07:50:53.112Z,79.21
2022-10-09T07:53:19.543Z,78.04
2022-10-09T07:55:47.721Z,76.29
2022-10-09T07:58:15.540Z,77.18
2022-10-09T08:00:42.516Z,74.30
2022-10-09T08:03:09.372Z,72.66
2022-10-09T08:05:36.073Z,70.12
2022-10-09T08:08:02.570Z,69.06
2022-10-09T08:10:30.587Z,68.22
2022-10-09T08:12:57.045Z,67.12
2022-10-09T08:15:23.502Z,67.39
2022-10-09T08:17:52.597Z,64.99
2022-10-09T08:20:19.041Z,64.55
2022-10-09T08:22:45.481Z,64.40
2022-10-09T08:25:11.839Z,64.17
2022-10-09T08:27:38.241Z,63.63
2022-10-09T08:30:07.609Z,63.07
2022-10-09T08:32:46.490Z,63.03
2022-10-09T08:35:20.538Z,62.42
2022-10-09T08:37:46.897Z,60.77
2022-10-09T08:40:19.516Z,60.35
2022-10-09T08:42:59.907Z,58.89
2022-10-09T08:45:26.579Z,59.51
2022-10-09T08:48:05.094Z,59.64
2022-10-09T08:50:38.200Z,60.38
2022-10-09T08:53:33.752Z,56.92
2022-10-09T08:56:05.754Z,57.73
2022-10-09T08:58:40.842Z,57.46
2022-10-09T09:01:39.439Z,55.67
2022-10-09T09:04:38.255Z,54.78
2022-10-09T09:07:26.254Z,55.51
2022-10-09T09:10:10.820Z,53.82
2022-10-09T09:12:57.106Z,54.09
2022-10-09T09:15:41.992Z,52.19
2022-10-09T09:18:21.050Z,51.55
2022-10-09T09:20:55.883Z,50.97
2022-10-09T09:23:25.554Z,51.25
2022-10-09T09:25:51.933Z,50.32
2022-10-09T09:28:25.493Z,51.49
2022-10-09T09:30:58.038Z,49.39
2022-10-09T09:33:45.488Z,50.19
2022-10-09T09:36:29.143Z,48.89
2022-10-09T09:41:43.305Z,47.92
2022-10-09T09:44:11.925Z,47.99
2022-10-09T09:46:39.627Z,46.18
2022-10-09T09:49:20.555Z,46.21
2022-10-09T09:51:49.640Z,44.63
2022-10-09T09:54:21.831Z,44.32
2022-10-09T09:59:42.043Z,42.89
2022-10-09T10:02:18.787Z,42.71
2022-10-09T10:05:01.535Z,42.90
2022-10-09T10:07:33.918Z,43.36
2022-10-09T10:10:13.215Z,41.49
2022-10-09T10:12:46.602Z,41.86
2022-10-09T10:15:19.241Z,40.77
2022-10-09T10:17:48.254Z,41.06
2022-10-09T10:20:17.434Z,40.65
2022-10-09T10:22:53.939Z,40.81
2022-10-09T10:25:24.587Z,41.23
2022-10-09T10:27:57.099Z,39.92
2022-10-09T10:30:23.608Z,38.66
2022-10-09T10:33:02.322Z,38.93
2022-10-09T10:35:33.913Z,38.23
2022-10-09T10:38:30.553Z,37.46
2022-10-09T10:41:09.490Z,37.56
2022-10-09T10:43:40.011Z,37.05
2022-10-09T10:46:29.785Z,37.06
2022-10-09T10:48:58.279Z,36.48
2022-10-09T10:51:39.848Z,36.09
2022-10-09T10:54:18.426Z,37.01
2022-10-09T10:56:53.887Z,35.41
2022-10-09T10:59:33.584Z,36.32
2022-10-09T11:02:24.377Z,35.22
2022-10-09T11:05:13.707Z,34.83
2022-10-09T11:07:46.120Z,34.52
2022-10-09T11:10:29.744Z,35.39
2022-10-09T11:13:10.745Z,34.94
2022-10-09T11:15:54.340Z,35.31
2022-10-09T11:18:47.469Z,33.47
2022-10-09T11:21:35.832Z,33.58
2022-10-09T11:24:37.282Z,32.42
2022-10-09T11:27:41.862Z,32.34
2022-10-09T11:30:11.075Z,31.40
2022-10-09T11:32:52.728Z,31.60
2022-10-09T11:35:22.610Z,31.16
2022-10-09T11:37:58.114Z,30.45
2022-10-09T11:40:30.735Z,29.82
2022-10-09T11:43:19.636Z,29.47
2022-10-09T11:45:58.196Z,31.10
2022-10-09T11:48:47.718Z,31.09
2022-10-09T11:51:28.398Z,28.93
2022-10-09T11:53:55.334Z,29.28
2022-10-09T11:56:27.802Z,28.49
2022-10-09T11:59:02.214Z,29.92
2022-10-09T12:01:42.942Z,29.00
2022-10-09T12:04:32.355Z,28.76
2022-10-09T12:07:12.530Z,28.47
2022-10-09T12:09:43.406Z,27.92
2022-10-09T12:12:10.284Z,28.36
2022-10-09T12:14:38.333Z,28.77
2022-10-09T12:17:22.792Z,29.52
2022-10-09T12:20:00.178Z,28.94
2022-10-09T12:22:30.297Z,28.11
2022-10-09T12:25:03.522Z,27.62
2022-10-09T12:27:38.044Z,27.01
2022-10-09T12:30:04.463Z,26.93
2022-10-09T12:32:39.561Z,27.81
2022-10-09T12:35:26.251Z,26.95
2022-10-09T12:37:52.939Z,28.20
2022-10-09T12:40:32.462Z,28.50
2022-10-09T12:43:06.117Z,28.38
2022-10-09T12:45:32.771Z,28.09
2022-10-09T12:48:08.557Z,27.06
2022-10-09T12:50:36.011Z,27.87
2022-10-09T12:53:13.370Z,27.72
2022-10-09T12:55:48.709Z,28.02
2022-10-09T12:58:19.468Z,28.34
2022-10-09T13:00:48.579Z,27.63
2022-10-09T13:03:37.440Z,27.75
2022-10-09T13:06:18.192Z,27.71
2022-10-09T13:08:46.071Z,28.29
2022-10-09T13:11:17.972Z,28.40
2022-10-09T13:13:49.463Z,28.65
2022-10-09T13:16:16.066Z,29.90
2022-10-09T13:18:42.946Z,28.74
2022-10-09T13:21:24.835Z,29.20
2022-10-09T13:23:51.286Z,29.59
2022-10-09T13:26:27.685Z,28.52
2022-10-09T13:28:55.900Z,29.26
2022-10-09T13:31:22.362Z,30.47
2022-10-09T13:33:49.213Z,30.49
2022-10-09T13:36:17.352Z,30.32
2022-10-09T13:38:44.167Z,29.53
2022-10-09T13:41:18.038Z,28.87
2022-10-09T13:43:44.836Z,29.12
2022-10-09T13:46:11.280Z,29.69
2022-10-09T13:48:38.038Z,29.21
2022-10-09T13:51:06.212Z,29.88
2022-10-09T13:53:33.101Z,29.73
2022-10-09T13:56:01.093Z,29.71
2022-10-09T13:58:27.960Z,31.34
2022-10-09T14:00:54.379Z,30.41
2022-10-09T14:03:21.258Z,30.52
2022-10-09T14:05:47.648Z,30.00
2022-10-09T14:08:14.021Z,30.23
2022-10-09T14:10:43.813Z,30.95
2022-10-09T14:13:10.829Z,30.87
2022-10-09T14:15:41.530Z,31.09
2022-10-09T14:18:08.702Z,31.87
2022-10-09T14:20:35.887Z,31.43
2022-10-09T14:23:02.297Z,31.90
2022-10-09T14:25:29.029Z,31.13
2022-10-09T14:27:55.818Z,32.85
2022-10-09T14:30:22.318Z,32.51
2022-10-09T14:32:48.957Z,32.92
2022-10-09T14:35:20.540Z,33.38
2022-10-09T14:37:47.785Z,32.82
2022-10-09T14:40:14.270Z,33.56
2022-10-09T14:42:40.870Z,32.89
2022-10-09T14:45:08.425Z,34.07
2022-10-09T14:47:34.982Z,34.72
2022-10-09T14:50:01.805Z,34.97
2022-10-09T14:52:28.214Z,33.52
2022-10-09T14:54:54.553Z,34.47
2022-10-09T14:57:20.969Z,35.29
2022-10-09T14:59:47.538Z,34.87
2022-10-09T15:02:17.447Z,34.73
2022-10-09T15:04:43.806Z,35.12
2022-10-09T15:07:10.274Z,34.94
2022-10-09T15:09:36.685Z,34.50
2022-10-09T15:12:03.296Z,35.16
2022-10-09T15:14:29.660Z,34.96
2022-10-09T15:16:56.040Z,35.08
2022-10-09T15:19:22.487Z,35.35
2022-10-09T15:21:48.921Z,35.81
2022-10-09T15:24:15.334Z,36.01
2022-10-09T15:26:41.974Z,37.20
2022-10-09T15:29:08.511Z,37.12
2022-10-09T15:31:37.498Z,37.43
2022-10-09T15:34:05.032Z,37.44
2022-10-09T15:36:35.360Z,38.03
2022-10-09T15:39:05.920Z,38.56
2022-10-09T15:41:34.606Z,38.75
2022-10-09T15:44:04.426Z,39.16
2022-10-09T15:46:31.297Z,39.50
2022-10-09T15:48:58.314Z,39.67
2022-10-09T15:51:25.815Z,40.92
2022-10-09T15:53:53.027Z,41.51
2022-10-09T15:56:24.600Z,41.40
2022-10-09T15:58:52.396Z,41.48
2022-10-09T16:01:19.465Z,42.07
2022-10-09T16:03:46.071Z,42.99
2022-10-09T16:06:15.545Z,43.05
2022-10-09T16:08:42.959Z,44.12
2022-10-09T16:11:12.029Z,43.60
2022-10-09T16:13:42.237Z,43.79
2022-10-09T16:16:12.005Z,44.56
2022-10-09T16:18:38.435Z,44.82
2022-10-09T16:21:07.556Z,45.16
2022-10-09T16:23:34.961Z,44.85
2022-10-09T16:26:02.427Z,50.07
2022-10-09T16:28:29.269Z,52.61
2022-10-09T16:30:55.766Z,54.57
2022-10-09T16:33:22.610Z,54.10
2022-10-09T16:35:49.279Z,51.15
2022-10-09T16:38:16.681Z,57.26
2022-10-09T16:43:34.887Z,60.34
2022-10-09T16:46:10.420Z,62.35
2022-10-09T16:48:36.902Z,63.94
2022-10-09T16:51:08.309Z,64.36
2022-10-09T16:53:34.778Z,65.30
2022-10-09T16:56:29.729Z,66.31
2022-10-09T16:58:58.172Z,66.51
2022-10-09T17:01:25.278Z,67.45
2022-10-09T17:03:54.686Z,68.12
2022-10-09T17:06:23.531Z,68.69
2022-10-09T17:08:55.290Z,69.34
2022-10-09T17:11:22.767Z,69.15
2022-10-09T17:13:49.293Z,69.68
2022-10-09T17:16:19.419Z,69.66
2022-10-09T17:18:46.971Z,70.22
2022-10-09T17:21:14.785Z,71.09
2022-10-09T17:23:41.537Z,71.50
2022-10-09T17:26:11.840Z,71.82
2022-10-09T17:28:39.455Z,71.49
2022-10-09T17:31:07.850Z,72.46
2022-10-09T17:33:37.314Z,72.79
2022-10-09T17:36:04.245Z,72.98
2022-10-09T17:38:30.994Z,73.21
2022-10-09T17:40:57.431Z,74.14
2022-10-09T17:43:23.828Z,73.87
2022-10-09T17:45:50.669Z,74.46
2022-10-09T17:48:17.774Z,74.35
2022-10-09T17:50:55.336Z,74.11
2022-10-09T17:53:22.721Z,74.51
2022-10-09T17:55:50.489Z,74.52
2022-10-09T17:58:17.391Z,74.62
2022-10-09T18:00:43.957Z,74.72
2022-10-09T18:03:10.733Z,74.69
2022-10-09T18:05:41.792Z,75.01
2022-10-09T18:08:08.637Z,75.36
2022-10-09T18:10:37.049Z,75.06
2022-10-09T18:13:04.471Z,72.89
2022-10-09T18:15:31.058Z,73.99
2022-10-09T18:17:57.647Z,70.01
2022-10-09T18:20:24.017Z,69.48
2022-10-09T18:22:50.443Z,71.90
2022-10-09T18:25:16.863Z,71.19
2022-10-09T18:27:43.301Z,67.53
2022-10-09T18:30:10.407Z,68.36
2022-10-09T18:32:36.789Z,66.21
2022-10-09T18:35:03.482Z,67.93
2022-10-09T18:37:29.859Z,67.32
2022-10-09T18:39:56.255Z,67.36
2022-10-09T18:42:22.750Z,69.41
2022-10-09T18:44:49.179Z,69.89
2022-10-09T18:47:18.886Z,69.95
2022-10-09T18:49:48.806Z,71.27
2022-10-09T18:52:15.893Z,71.79
2022-10-09T18:54:46.923Z,72.85
2022-10-09T18:57:13.557Z,73.23
2022-10-09T18:59:40.465Z,73.76
2022-10-09T19:02:07.415Z,74.32
2022-10-09T19:04:33.840Z,74.83
2022-10-09T19:07:00.236Z,75.05
2022-10-09T19:09:26.699Z,75.65
2022-10-09T19:11:53.254Z,74.90
2022-10-09T19:14:19.776Z,75.21
2022-10-09T19:16:46.576Z,75.88
2022-10-09T19:19:13.062Z,76.24
2022-10-09T19:21:43.737Z,76.31
2022-10-09T19:24:12.310Z,75.95
2022-10-09T19:26:40.089Z,75.45
2022-10-09T19:29:07.523Z,74.03
2022-10-09T19:31:35.647Z,69.64
2022-10-09T19:34:04.704Z,71.39
2022-10-09T19:36:33.283Z,69.00
2022-10-09T19:39:01.013Z,68.96
2022-10-09T19:41:27.619Z,68.51
2022-10-09T19:43:54.063Z,67.14
2022-10-09T19:46:22.568Z,68.11
2022-10-09T19:48:52.160Z,69.65
2022-10-09T19:51:24.723Z,68.91
2022-10-09T19:53:53.414Z,70.68
2022-10-09T19:56:22.767Z,68.91
2022-10-09T19:58:49.695Z,70.53
2022-10-09T20:01:19.692Z,69.70
2022-10-09T20:03:46.523Z,70.36
2022-10-09T20:06:13.548Z,70.47
2022-10-09T20:08:41.795Z,70.50
2022-10-09T20:11:11.304Z,68.66
2022-10-09T20:13:39.321Z,70.18
2022-10-09T20:16:08.664Z,68.75
2022-10-09T20:18:35.382Z,72.50
2022-10-09T20:21:01.987Z,73.55
2022-10-09T20:23:28.389Z,73.89
2022-10-09T20:26:07.971Z,74.70
2022-10-09T20:28:36.184Z,75.01
2022-10-09T20:31:06.535Z,75.45
2022-10-09T20:33:34.518Z,75.50
2022-10-09T20:36:00.964Z,75.75
2022-10-09T20:38:27.565Z,76.17
2022-10-09T20:40:54.105Z,76.32
2022-10-09T20:43:20.664Z,76.43
2022-10-09T20:45:47.021Z,76.65
2022-10-09T20:48:13.451Z,77.37
2022-10-09T20:50:41.610Z,77.34
2022-10-09T20:53:10.062Z,77.78
2022-10-09T20:55:36.440Z,77.98
2022-10-09T20:58:04.097Z,77.94
2022-10-09T21:00:30.787Z,77.62
2022-10-09T21:02:57.295Z,77.66
2022-10-09T21:05:23.663Z,78.23
2022-10-09T21:07:50.253Z,77.98
2022-10-09T21:10:16.706Z,78.60
2022-10-09T21:12:43.109Z,78.68
2022-10-09T21:15:09.934Z,78.80
2022-10-09T21:17:36.332Z,78.96
2022-10-09T21:20:03.021Z,78.34
2022-10-09T21:22:29.414Z,77.73
2022-10-09T21:24:55.814Z,77.69
2022-10-09T21:27:22.261Z,76.79
2022-10-09T21:29:48.705Z,76.38
2022-10-09T21:32:15.087Z,76.10
2022-10-09T21:34:41.546Z,74.54
2022-10-09T21:37:21.803Z,73.65
2022-10-09T21:39:48.850Z,71.72
2022-10-09T21:42:15.306Z,74.56
2022-10-09T21:44:41.707Z,69.48
2022-10-09T21:47:15.426Z,70.82
2022-10-09T21:49:41.845Z,71.91
2022-10-09T21:52:09.789Z,71.74
2022-10-09T21:54:36.342Z,68.39
2022-10-09T21:57:02.908Z,69.10
2022-10-09T21:59:29.415Z,71.52
2022-10-09T22:01:55.830Z,68.88
2022-10-09T22:04:22.310Z,66.86
2022-10-09T22:06:48.735Z,70.06
2022-10-09T22:09:15.251Z,69.82
2022-10-09T22:11:41.720Z,69.02
2022-10-09T22:14:08.193Z,71.14
2022-10-09T22:16:34.640Z,69.64
2022-10-09T22:19:01.013Z,71.05
2022-10-09T22:21:27.740Z,68.23
2022-10-09T22:23:54.159Z,68.75
2022-10-09T22:26:22.472Z,71.93
2022-10-09T22:28:49.734Z,72.21
2022-10-09T22:31:18.137Z,72.30
2022-10-09T22:33:44.981Z,71.50
2022-10-09T22:36:16.805Z,72.77
2022-10-09T22:38:44.297Z,71.86
2022-10-09T22:41:14.225Z,71.85
2022-10-09T22:43:41.866Z,70.96
2022-10-09T22:46:10.421Z,74.13
2022-10-09T22:48:37.464Z,74.86
2022-10-09T22:51:06.290Z,75.04
2022-10-09T22:53:35.044Z,73.15
2022-10-09T22:56:03.334Z,73.07
2022-10-09T22:58:29.742Z,74.23
2022-10-09T23:00:56.373Z,74.78
2022-10-09T23:03:22.770Z,75.49
2022-10-09T23:05:49.229Z,73.79
2022-10-09T23:08:15.686Z,75.72
2022-10-09T23:10:42.127Z,75.98
2022-10-09T23:13:08.549Z,76.38
2022-10-09T23:15:37.757Z,75.08
2022-10-09T23:18:05.153Z,75.23
2022-10-09T23:20:36.373Z,76.36
2022-10-09T23:23:03.176Z,75.13
2022-10-09T23:25:29.586Z,76.68
2022-10-09T23:27:55.991Z,76.48
2022-10-09T23:30:22.344Z,77.28
2022-10-09T23:32:52.293Z,77.40
2022-10-09T23:35:18.878Z,77.12
2022-10-09T23:37:45.386Z,77.86
2022-10-09T23:40:11.785Z,76.60
2022-10-09T23:42:38.217Z,77.56
2022-10-09T23:45:05.083Z,77.19
2022-10-09T23:47:31.469Z,77.46
2022-10-09T23:49:57.898Z,78.03
2022-10-09T23:52:24.405Z,77.70
2022-10-09T23:54:50.770Z,78.54
2022-10-09T23:57:17.222Z,77.45
2022-10-09T23:59:43.690Z,77.43
